sensor_id;sensor_type;location;lat;lon;timestamp;P1;durP1;ratioP1;P2;durP2;ratioP2
10299;SDS011;5195;48.562;9.192;2022-09-09T00:04:30;3.00;;;1.13;;
10299;SDS011;5195;48.562;9.192;2022-09-09T00:09:25;1.47;;;1.10;;
10299;SDS011;5195;48.562;9.192;2022-09-09T00:11:54;2.77;;;1.30;;
10299;SDS011;5195;48.562;9.192;2022-09-09T00:17:08;1.90;;;1.27;;
10299;SDS011;5195;48.562;9.192;2022-09-09T00:20:00;2.50;;;1.20;;
10299;SDS011;5195;48.562;9.192;2022-09-09T00:24:41;2.40;;;1.27;;
10299;SDS011;5195;48.562;9.192;2022-09-09T00:27:04;1.83;;;0.90;;
10299;SDS011;5195;48.562;9.192;2022-09-09T00:29:41;1.03;;;0.80;;
10299;SDS011;5195;48.562;9.192;2022-09-09T00:32:13;1.20;;;0.90;;
10299;SDS011;5195;48.562;9.192;2022-09-09T00:34:37;2.80;;;1.37;;
10299;SDS011;5195;48.562;9.192;2022-09-09T00:37:02;1.53;;;1.17;;
10299;SDS011;5195;48.562;9.192;2022-09-09T00:39:36;1.77;;;1.40;;
10299;SDS011;5195;48.562;9.192;2022-09-09T00:45:32;1.30;;;1.20;;
10299;SDS011;5195;48.562;9.192;2022-09-09T00:47:45;2.30;;;1.40;;
10299;SDS011;5195;48.562;9.192;2022-09-09T00:52:55;1.50;;;1.20;;
10299;SDS011;5195;48.562;9.192;2022-09-09T00:58:12;1.87;;;1.20;;
10299;SDS011;5195;48.562;9.192;2022-09-09T01:00:46;2.83;;;1.50;;
10299;SDS011;5195;48.562;9.192;2022-09-09T01:03:25;2.63;;;1.40;;
10299;SDS011;5195;48.562;9.192;2022-09-09T01:11:00;2.20;;;0.87;;
10299;SDS011;5195;48.562;9.192;2022-09-09T01:13:30;1.70;;;1.00;;
10299;SDS011;5195;48.562;9.192;2022-09-09T01:15:58;0.90;;;0.90;;
10299;SDS011;5195;48.562;9.192;2022-09-09T01:18:25;1.45;;;0.90;;
10299;SDS011;5195;48.562;9.192;2022-09-09T01:20:55;1.50;;;0.97;;
10299;SDS011;5195;48.562;9.192;2022-09-09T01:26:32;1.75;;;1.15;;
10299;SDS011;5195;48.562;9.192;2022-09-09T01:28:56;1.47;;;0.90;;
10299;SDS011;5195;48.562;9.192;2022-09-09T01:31:32;1.65;;;1.05;;
10299;SDS011;5195;48.562;9.192;2022-09-09T01:33:54;2.42;;;1.10;;
10299;SDS011;5195;48.562;9.192;2022-09-09T01:39:25;1.27;;;1.10;;
10299;SDS011;5195;48.562;9.192;2022-09-09T01:41:53;2.97;;;1.10;;
10299;SDS011;5195;48.562;9.192;2022-09-09T01:44:18;2.28;;;1.23;;
10299;SDS011;5195;48.562;9.192;2022-09-09T01:46:44;2.37;;;1.13;;
10299;SDS011;5195;48.562;9.192;2022-09-09T01:49:09;1.83;;;1.20;;
10299;SDS011;5195;48.562;9.192;2022-09-09T01:51:35;1.37;;;1.00;;
10299;SDS011;5195;48.562;9.192;2022-09-09T01:54:00;1.70;;;1.23;;
10299;SDS011;5195;48.562;9.192;2022-09-09T01:56:33;3.62;;;1.12;;
10299;SDS011;5195;48.562;9.192;2022-09-09T01:59:11;3.97;;;1.20;;
10299;SDS011;5195;48.562;9.192;2022-09-09T02:09:47;2.30;;;1.23;;
10299;SDS011;5195;48.562;9.192;2022-09-09T02:12:13;1.37;;;1.20;;
10299;SDS011;5195;48.562;9.192;2022-09-09T02:14:40;2.87;;;1.20;;
10299;SDS011;5195;48.562;9.192;2022-09-09T02:17:08;3.50;;;1.17;;
10299;SDS011;5195;48.562;9.192;2022-09-09T02:19:39;1.93;;;1.10;;
10299;SDS011;5195;48.562;9.192;2022-09-09T02:22:05;2.53;;;1.35;;
10299;SDS011;5195;48.562;9.192;2022-09-09T02:24:31;5.28;;;1.60;;
10299;SDS011;5195;48.562;9.192;2022-09-09T02:26:56;2.43;;;1.40;;
10299;SDS011;5195;48.562;9.192;2022-09-09T02:29:23;2.90;;;1.48;;
10299;SDS011;5195;48.562;9.192;2022-09-09T02:31:51;3.20;;;1.20;;
10299;SDS011;5195;48.562;9.192;2022-09-09T02:34:18;2.70;;;1.40;;
10299;SDS011;5195;48.562;9.192;2022-09-09T02:36:44;3.33;;;1.60;;
10299;SDS011;5195;48.562;9.192;2022-09-09T02:39:09;2.22;;;1.60;;
10299;SDS011;5195;48.562;9.192;2022-09-09T02:41:35;2.23;;;1.67;;
10299;SDS011;5195;48.562;9.192;2022-09-09T02:44:01;2.10;;;1.53;;
10299;SDS011;5195;48.562;9.192;2022-09-09T02:52:26;4.43;;;1.67;;
10299;SDS011;5195;48.562;9.192;2022-09-09T02:54:47;2.47;;;1.45;;
10299;SDS011;5195;48.562;9.192;2022-09-09T02:57:14;3.23;;;1.63;;
10299;SDS011;5195;48.562;9.192;2022-09-09T02:59:40;2.62;;;1.60;;
10299;SDS011;5195;48.562;9.192;2022-09-09T03:02:06;3.10;;;1.80;;
10299;SDS011;5195;48.562;9.192;2022-09-09T03:04:33;3.60;;;1.60;;
10299;SDS011;5195;48.562;9.192;2022-09-09T03:06:58;1.77;;;1.40;;
10299;SDS011;5195;48.562;9.192;2022-09-09T03:09:24;2.37;;;1.50;;
10299;SDS011;5195;48.562;9.192;2022-09-09T03:11:49;1.20;;;1.10;;
10299;SDS011;5195;48.562;9.192;2022-09-09T03:14:18;1.40;;;1.30;;
10299;SDS011;5195;48.562;9.192;2022-09-09T03:16:44;2.87;;;1.73;;
10299;SDS011;5195;48.562;9.192;2022-09-09T03:19:09;3.42;;;1.50;;
10299;SDS011;5195;48.562;9.192;2022-09-09T03:21:36;4.97;;;1.60;;
10299;SDS011;5195;48.562;9.192;2022-09-09T03:24:02;1.77;;;1.43;;
10299;SDS011;5195;48.562;9.192;2022-09-09T03:26:27;3.20;;;1.80;;
10299;SDS011;5195;48.562;9.192;2022-09-09T03:28:54;2.50;;;1.50;;
10299;SDS011;5195;48.562;9.192;2022-09-09T03:31:21;2.07;;;1.20;;
10299;SDS011;5195;48.562;9.192;2022-09-09T03:33:46;3.83;;;1.60;;
10299;SDS011;5195;48.562;9.192;2022-09-09T03:36:12;2.90;;;1.57;;
10299;SDS011;5195;48.562;9.192;2022-09-09T03:38:37;1.77;;;1.67;;
10299;SDS011;5195;48.562;9.192;2022-09-09T03:41:03;2.53;;;1.60;;
10299;SDS011;5195;48.562;9.192;2022-09-09T03:43:28;2.33;;;1.30;;
10299;SDS011;5195;48.562;9.192;2022-09-09T03:45:54;2.90;;;1.37;;
10299;SDS011;5195;48.562;9.192;2022-09-09T03:48:19;2.97;;;1.57;;
10299;SDS011;5195;48.562;9.192;2022-09-09T03:50:50;3.30;;;1.67;;
10299;SDS011;5195;48.562;9.192;2022-09-09T03:53:15;3.83;;;1.77;;
10299;SDS011;5195;48.562;9.192;2022-09-09T03:55:44;3.95;;;1.60;;
10299;SDS011;5195;48.562;9.192;2022-09-09T03:58:09;2.27;;;1.30;;
10299;SDS011;5195;48.562;9.192;2022-09-09T04:00:35;4.03;;;1.80;;
10299;SDS011;5195;48.562;9.192;2022-09-09T04:03:00;3.97;;;1.50;;
10299;SDS011;5195;48.562;9.192;2022-09-09T04:05:26;2.85;;;1.55;;
10299;SDS011;5195;48.562;9.192;2022-09-09T04:07:52;2.50;;;1.40;;
10299;SDS011;5195;48.562;9.192;2022-09-09T04:10:18;2.47;;;1.57;;
10299;SDS011;5195;48.562;9.192;2022-09-09T04:12:43;1.80;;;1.63;;
10299;SDS011;5195;48.562;9.192;2022-09-09T04:15:09;1.83;;;1.50;;
10299;SDS011;5195;48.562;9.192;2022-09-09T04:17:35;3.07;;;1.30;;
10299;SDS011;5195;48.562;9.192;2022-09-09T04:20:00;2.40;;;1.60;;
10299;SDS011;5195;48.562;9.192;2022-09-09T04:22:26;1.60;;;1.47;;
10299;SDS011;5195;48.562;9.192;2022-09-09T04:24:51;2.83;;;1.30;;
10299;SDS011;5195;48.562;9.192;2022-09-09T04:27:17;4.13;;;1.23;;
10299;SDS011;5195;48.562;9.192;2022-09-09T04:29:44;2.77;;;1.50;;
10299;SDS011;5195;48.562;9.192;2022-09-09T04:32:10;1.55;;;1.30;;
10299;SDS011;5195;48.562;9.192;2022-09-09T04:34:35;2.57;;;1.53;;
10299;SDS011;5195;48.562;9.192;2022-09-09T04:37:01;2.30;;;1.60;;
10299;SDS011;5195;48.562;9.192;2022-09-09T04:39:26;2.30;;;1.48;;
10299;SDS011;5195;48.562;9.192;2022-09-09T04:41:52;2.83;;;1.60;;
10299;SDS011;5195;48.562;9.192;2022-09-09T04:44:17;2.33;;;1.20;;
10299;SDS011;5195;48.562;9.192;2022-09-09T04:46:43;2.55;;;1.40;;
10299;SDS011;5195;48.562;9.192;2022-09-09T04:49:09;1.70;;;1.42;;
10299;SDS011;5195;48.562;9.192;2022-09-09T04:51:48;2.67;;;1.43;;
10299;SDS011;5195;48.562;9.192;2022-09-09T04:54:33;3.83;;;1.50;;
10299;SDS011;5195;48.562;9.192;2022-09-09T04:57:48;3.27;;;1.20;;
10299;SDS011;5195;48.562;9.192;2022-09-09T05:00:15;2.90;;;1.20;;
10299;SDS011;5195;48.562;9.192;2022-09-09T05:02:44;1.83;;;1.40;;
10299;SDS011;5195;48.562;9.192;2022-09-09T05:05:12;1.13;;;1.00;;
10299;SDS011;5195;48.562;9.192;2022-09-09T05:07:39;2.47;;;1.17;;
10299;SDS011;5195;48.562;9.192;2022-09-09T05:10:09;1.73;;;1.12;;
10299;SDS011;5195;48.562;9.192;2022-09-09T05:12:36;3.63;;;1.13;;
10299;SDS011;5195;48.562;9.192;2022-09-09T05:15:01;1.40;;;1.30;;
10299;SDS011;5195;48.562;9.192;2022-09-09T05:17:27;4.30;;;1.60;;
10299;SDS011;5195;48.562;9.192;2022-09-09T05:19:56;1.40;;;1.00;;
10299;SDS011;5195;48.562;9.192;2022-09-09T05:22:22;3.40;;;1.50;;
10299;SDS011;5195;48.562;9.192;2022-09-09T05:24:48;3.70;;;1.20;;
10299;SDS011;5195;48.562;9.192;2022-09-09T05:27:13;1.67;;;1.57;;
10299;SDS011;5195;48.562;9.192;2022-09-09T05:29:39;2.00;;;1.30;;
10299;SDS011;5195;48.562;9.192;2022-09-09T05:32:06;4.03;;;1.43;;
10299;SDS011;5195;48.562;9.192;2022-09-09T05:34:32;1.37;;;1.23;;
10299;SDS011;5195;48.562;9.192;2022-09-09T05:36:58;2.42;;;1.55;;
10299;SDS011;5195;48.562;9.192;2022-09-09T05:39:23;2.83;;;1.37;;
10299;SDS011;5195;48.562;9.192;2022-09-09T05:41:49;1.50;;;1.40;;
10299;SDS011;5195;48.562;9.192;2022-09-09T05:44:14;1.70;;;1.40;;
10299;SDS011;5195;48.562;9.192;2022-09-09T05:46:40;2.85;;;1.50;;
10299;SDS011;5195;48.562;9.192;2022-09-09T05:49:07;1.53;;;1.30;;
10299;SDS011;5195;48.562;9.192;2022-09-09T05:51:32;3.73;;;2.00;;
10299;SDS011;5195;48.562;9.192;2022-09-09T05:54:00;2.20;;;1.52;;
10299;SDS011;5195;48.562;9.192;2022-09-09T05:56:26;2.33;;;1.50;;
10299;SDS011;5195;48.562;9.192;2022-09-09T05:58:51;1.33;;;1.13;;
10299;SDS011;5195;48.562;9.192;2022-09-09T06:01:18;3.97;;;1.43;;
10299;SDS011;5195;48.562;9.192;2022-09-09T06:03:43;2.22;;;1.10;;
10299;SDS011;5195;48.562;9.192;2022-09-09T06:06:09;3.57;;;1.50;;
10299;SDS011;5195;48.562;9.192;2022-09-09T06:08:36;2.15;;;1.33;;
10299;SDS011;5195;48.562;9.192;2022-09-09T06:11:19;2.53;;;1.47;;
10299;SDS011;5195;48.562;9.192;2022-09-09T06:13:44;1.80;;;1.07;;
10299;SDS011;5195;48.562;9.192;2022-09-09T06:16:11;2.33;;;1.30;;
10299;SDS011;5195;48.562;9.192;2022-09-09T06:18:36;3.35;;;1.50;;
10299;SDS011;5195;48.562;9.192;2022-09-09T06:21:02;3.10;;;1.27;;
10299;SDS011;5195;48.562;9.192;2022-09-09T06:23:27;1.80;;;1.50;;
10299;SDS011;5195;48.562;9.192;2022-09-09T06:26:06;2.10;;;1.67;;
10299;SDS011;5195;48.562;9.192;2022-09-09T06:28:36;3.47;;;2.93;;
10299;SDS011;5195;48.562;9.192;2022-09-09T06:31:01;1.85;;;1.70;;
10299;SDS011;5195;48.562;9.192;2022-09-09T06:33:27;1.50;;;1.20;;
10299;SDS011;5195;48.562;9.192;2022-09-09T06:35:53;2.10;;;1.50;;
10299;SDS011;5195;48.562;9.192;2022-09-09T06:38:21;3.08;;;1.75;;
10299;SDS011;5195;48.562;9.192;2022-09-09T06:40:51;1.60;;;1.30;;
10299;SDS011;5195;48.562;9.192;2022-09-09T06:43:15;2.23;;;1.13;;
10299;SDS011;5195;48.562;9.192;2022-09-09T06:45:41;3.50;;;1.33;;
10299;SDS011;5195;48.562;9.192;2022-09-09T06:48:07;2.70;;;1.50;;
10299;SDS011;5195;48.562;9.192;2022-09-09T06:50:32;3.07;;;1.20;;
10299;SDS011;5195;48.562;9.192;2022-09-09T06:52:59;2.53;;;1.30;;
10299;SDS011;5195;48.562;9.192;2022-09-09T06:55:24;2.47;;;1.20;;
10299;SDS011;5195;48.562;9.192;2022-09-09T06:57:50;1.90;;;1.40;;
10299;SDS011;5195;48.562;9.192;2022-09-09T07:00:15;2.60;;;1.25;;
10299;SDS011;5195;48.562;9.192;2022-09-09T07:02:41;1.93;;;1.37;;
10299;SDS011;5195;48.562;9.192;2022-09-09T07:05:08;1.70;;;1.47;;
10299;SDS011;5195;48.562;9.192;2022-09-09T07:07:36;3.90;;;1.30;;
10299;SDS011;5195;48.562;9.192;2022-09-09T07:10:02;3.73;;;1.30;;
10299;SDS011;5195;48.562;9.192;2022-09-09T07:12:27;4.00;;;1.07;;
10299;SDS011;5195;48.562;9.192;2022-09-09T07:14:53;3.57;;;1.47;;
10299;SDS011;5195;48.562;9.192;2022-09-09T07:17:19;3.15;;;1.50;;
10299;SDS011;5195;48.562;9.192;2022-09-09T07:19:45;4.13;;;1.30;;
10299;SDS011;5195;48.562;9.192;2022-09-09T07:22:10;1.20;;;1.10;;
10299;SDS011;5195;48.562;9.192;2022-09-09T07:24:37;2.10;;;1.30;;
10299;SDS011;5195;48.562;9.192;2022-09-09T07:27:04;2.10;;;1.30;;
10299;SDS011;5195;48.562;9.192;2022-09-09T07:29:30;2.92;;;1.40;;
10299;SDS011;5195;48.562;9.192;2022-09-09T07:31:56;2.60;;;1.43;;
10299;SDS011;5195;48.562;9.192;2022-09-09T07:34:22;2.03;;;1.40;;
10299;SDS011;5195;48.562;9.192;2022-09-09T07:36:48;2.10;;;1.00;;
10299;SDS011;5195;48.562;9.192;2022-09-09T07:39:13;2.57;;;1.43;;
10299;SDS011;5195;48.562;9.192;2022-09-09T07:41:40;1.27;;;1.07;;
10299;SDS011;5195;48.562;9.192;2022-09-09T07:44:05;1.70;;;1.10;;
10299;SDS011;5195;48.562;9.192;2022-09-09T07:46:29;1.73;;;1.37;;
10299;SDS011;5195;48.562;9.192;2022-09-09T07:48:56;3.03;;;1.37;;
10299;SDS011;5195;48.562;9.192;2022-09-09T07:51:22;1.70;;;1.33;;
10299;SDS011;5195;48.562;9.192;2022-09-09T07:53:55;3.62;;;1.45;;
10299;SDS011;5195;48.562;9.192;2022-09-09T07:56:18;3.00;;;1.50;;
10299;SDS011;5195;48.562;9.192;2022-09-09T07:58:45;2.72;;;1.60;;
10299;SDS011;5195;48.562;9.192;2022-09-09T08:01:11;2.00;;;1.17;;
10299;SDS011;5195;48.562;9.192;2022-09-09T08:03:35;3.35;;;1.60;;
10299;SDS011;5195;48.562;9.192;2022-09-09T08:06:02;3.20;;;1.53;;
10299;SDS011;5195;48.562;9.192;2022-09-09T08:08:27;3.67;;;1.40;;
10299;SDS011;5195;48.562;9.192;2022-09-09T08:10:52;2.50;;;1.40;;
10299;SDS011;5195;48.562;9.192;2022-09-09T08:13:18;3.00;;;1.40;;
10299;SDS011;5195;48.562;9.192;2022-09-09T08:15:43;2.72;;;1.50;;
10299;SDS011;5195;48.562;9.192;2022-09-09T08:18:09;2.97;;;1.40;;
10299;SDS011;5195;48.562;9.192;2022-09-09T08:20:35;4.87;;;1.37;;
10299;SDS011;5195;48.562;9.192;2022-09-09T08:23:00;3.37;;;1.10;;
10299;SDS011;5195;48.562;9.192;2022-09-09T08:25:25;2.70;;;1.60;;
10299;SDS011;5195;48.562;9.192;2022-09-09T08:27:53;2.67;;;1.30;;
10299;SDS011;5195;48.562;9.192;2022-09-09T08:30:18;2.33;;;1.40;;
10299;SDS011;5195;48.562;9.192;2022-09-09T08:32:44;2.40;;;1.30;;
10299;SDS011;5195;48.562;9.192;2022-09-09T08:35:11;2.70;;;1.40;;
10299;SDS011;5195;48.562;9.192;2022-09-09T08:37:37;1.83;;;1.63;;
10299;SDS011;5195;48.562;9.192;2022-09-09T08:40:02;1.85;;;1.30;;
10299;SDS011;5195;48.562;9.192;2022-09-09T08:42:33;2.20;;;1.43;;
10299;SDS011;5195;48.562;9.192;2022-09-09T08:50:01;2.80;;;1.37;;
10299;SDS011;5195;48.562;9.192;2022-09-09T08:55:46;2.97;;;1.40;;
10299;SDS011;5195;48.562;9.192;2022-09-09T08:58:19;2.90;;;1.55;;
10299;SDS011;5195;48.562;9.192;2022-09-09T09:09:06;3.87;;;1.40;;
10299;SDS011;5195;48.562;9.192;2022-09-09T09:11:49;1.77;;;1.30;;
10299;SDS011;5195;48.562;9.192;2022-09-09T09:14:21;1.97;;;1.13;;
10299;SDS011;5195;48.562;9.192;2022-09-09T09:19:18;2.22;;;1.40;;
10299;SDS011;5195;48.562;9.192;2022-09-09T09:21:45;2.10;;;1.10;;
10299;SDS011;5195;48.562;9.192;2022-09-09T09:24:21;2.47;;;1.10;;
10299;SDS011;5195;48.562;9.192;2022-09-09T09:26:45;1.87;;;1.17;;
10299;SDS011;5195;48.562;9.192;2022-09-09T09:29:13;1.60;;;1.00;;
10299;SDS011;5195;48.562;9.192;2022-09-09T09:31:37;1.80;;;1.08;;
10299;SDS011;5195;48.562;9.192;2022-09-09T09:34:03;1.77;;;1.10;;
10299;SDS011;5195;48.562;9.192;2022-09-09T09:36:42;1.67;;;1.10;;
10299;SDS011;5195;48.562;9.192;2022-09-09T09:39:07;1.80;;;0.90;;
10299;SDS011;5195;48.562;9.192;2022-09-09T09:41:34;1.83;;;0.90;;
10299;SDS011;5195;48.562;9.192;2022-09-09T09:44:04;3.20;;;1.03;;
10299;SDS011;5195;48.562;9.192;2022-09-09T09:46:29;2.37;;;1.10;;
10299;SDS011;5195;48.562;9.192;2022-09-09T09:48:56;2.67;;;1.30;;
10299;SDS011;5195;48.562;9.192;2022-09-09T09:51:25;2.03;;;0.93;;
10299;SDS011;5195;48.562;9.192;2022-09-09T09:53:51;2.47;;;0.93;;
10299;SDS011;5195;48.562;9.192;2022-09-09T09:56:16;2.17;;;1.00;;
10299;SDS011;5195;48.562;9.192;2022-09-09T10:01:28;2.20;;;1.27;;
10299;SDS011;5195;48.562;9.192;2022-09-09T10:06:40;3.27;;;1.30;;
10299;SDS011;5195;48.562;9.192;2022-09-09T10:33:45;2.47;;;1.17;;
10299;SDS011;5195;48.562;9.192;2022-09-09T10:36:22;1.80;;;1.03;;
10299;SDS011;5195;48.562;9.192;2022-09-09T10:38:47;2.03;;;0.80;;
10299;SDS011;5195;48.562;9.192;2022-09-09T10:41:31;2.07;;;0.97;;
10299;SDS011;5195;48.562;9.192;2022-09-09T10:44:05;2.67;;;1.20;;
10299;SDS011;5195;48.562;9.192;2022-09-09T10:46:50;2.27;;;1.33;;
10299;SDS011;5195;48.562;9.192;2022-09-09T10:52:17;2.20;;;1.12;;
10299;SDS011;5195;48.562;9.192;2022-09-09T11:00:03;2.30;;;1.27;;
10299;SDS011;5195;48.562;9.192;2022-09-09T11:02:28;2.37;;;0.93;;
10299;SDS011;5195;48.562;9.192;2022-09-09T11:07:53;2.83;;;0.83;;
10299;SDS011;5195;48.562;9.192;2022-09-09T11:10:40;1.23;;;0.73;;
10299;SDS011;5195;48.562;9.192;2022-09-09T11:12:50;2.27;;;1.10;;
10299;SDS011;5195;48.562;9.192;2022-09-09T11:15:20;1.97;;;1.00;;
10299;SDS011;5195;48.562;9.192;2022-09-09T11:17:49;1.47;;;0.93;;
10299;SDS011;5195;48.562;9.192;2022-09-09T11:20:13;1.37;;;0.80;;
10299;SDS011;5195;48.562;9.192;2022-09-09T11:22:42;1.97;;;0.90;;
10299;SDS011;5195;48.562;9.192;2022-09-09T11:41:39;2.13;;;0.70;;
10299;SDS011;5195;48.562;9.192;2022-09-09T11:44:12;0.70;;;0.40;;
10299;SDS011;5195;48.562;9.192;2022-09-09T11:46:38;1.57;;;0.60;;
10299;SDS011;5195;48.562;9.192;2022-09-09T11:49:06;0.50;;;0.47;;
10299;SDS011;5195;48.562;9.192;2022-09-09T11:51:33;0.73;;;0.50;;
10299;SDS011;5195;48.562;9.192;2022-09-09T11:56:32;0.80;;;0.60;;
10299;SDS011;5195;48.562;9.192;2022-09-09T11:58:59;1.60;;;0.40;;
10299;SDS011;5195;48.562;9.192;2022-09-09T12:01:36;0.70;;;0.50;;
10299;SDS011;5195;48.562;9.192;2022-09-09T12:04:12;0.47;;;0.47;;
10299;SDS011;5195;48.562;9.192;2022-09-09T12:17:37;1.23;;;0.60;;
10299;SDS011;5195;48.562;9.192;2022-09-09T12:20:03;2.60;;;0.60;;
10299;SDS011;5195;48.562;9.192;2022-09-09T12:28:15;1.33;;;0.70;;
10299;SDS011;5195;48.562;9.192;2022-09-09T12:33:42;4.23;;;0.60;;
10299;SDS011;5195;48.562;9.192;2022-09-09T12:36:08;2.20;;;0.98;;
10299;SDS011;5195;48.562;9.192;2022-09-09T12:38:34;1.15;;;0.70;;
10299;SDS011;5195;48.562;9.192;2022-09-09T12:40:59;2.73;;;1.10;;
10299;SDS011;5195;48.562;9.192;2022-09-09T12:43:25;2.07;;;0.80;;
10299;SDS011;5195;48.562;9.192;2022-09-09T12:45:51;1.75;;;0.70;;
10299;SDS011;5195;48.562;9.192;2022-09-09T12:48:17;2.60;;;0.90;;
10299;SDS011;5195;48.562;9.192;2022-09-09T12:50:45;1.60;;;0.80;;
10299;SDS011;5195;48.562;9.192;2022-09-09T12:55:50;3.60;;;0.57;;
10299;SDS011;5195;48.562;9.192;2022-09-09T12:58:14;3.10;;;1.10;;
10299;SDS011;5195;48.562;9.192;2022-09-09T13:00:48;2.23;;;0.67;;
10299;SDS011;5195;48.562;9.192;2022-09-09T13:03:18;2.83;;;0.73;;
10299;SDS011;5195;48.562;9.192;2022-09-09T13:05:41;0.97;;;0.60;;
10299;SDS011;5195;48.562;9.192;2022-09-09T13:08:05;1.00;;;0.50;;
10299;SDS011;5195;48.562;9.192;2022-09-09T13:10:46;1.17;;;0.60;;
10299;SDS011;5195;48.562;9.192;2022-09-09T13:13:16;2.53;;;0.80;;
10299;SDS011;5195;48.562;9.192;2022-09-09T13:15:47;1.00;;;0.80;;
10299;SDS011;5195;48.562;9.192;2022-09-09T13:18:10;1.37;;;0.70;;
10299;SDS011;5195;48.562;9.192;2022-09-09T13:20:32;2.00;;;0.77;;
10299;SDS011;5195;48.562;9.192;2022-09-09T13:22:58;3.50;;;0.70;;
10299;SDS011;5195;48.562;9.192;2022-09-09T13:25:27;1.47;;;0.70;;
10299;SDS011;5195;48.562;9.192;2022-09-09T13:27:53;3.47;;;0.70;;
10299;SDS011;5195;48.562;9.192;2022-09-09T13:33:03;2.40;;;0.80;;
10299;SDS011;5195;48.562;9.192;2022-09-09T13:35:29;2.10;;;0.80;;
10299;SDS011;5195;48.562;9.192;2022-09-09T13:37:54;1.27;;;0.70;;
10299;SDS011;5195;48.562;9.192;2022-09-09T13:40:20;1.30;;;0.73;;
10299;SDS011;5195;48.562;9.192;2022-09-09T13:42:45;3.23;;;0.87;;
10299;SDS011;5195;48.562;9.192;2022-09-09T13:45:19;1.27;;;0.60;;
10299;SDS011;5195;48.562;9.192;2022-09-09T13:47:44;2.78;;;1.02;;
10299;SDS011;5195;48.562;9.192;2022-09-09T13:50:27;1.80;;;0.80;;
10299;SDS011;5195;48.562;9.192;2022-09-09T13:52:53;1.40;;;0.77;;
10299;SDS011;5195;48.562;9.192;2022-09-09T13:55:18;1.03;;;0.63;;
10299;SDS011;5195;48.562;9.192;2022-09-09T13:58:00;2.17;;;0.63;;
10299;SDS011;5195;48.562;9.192;2022-09-09T14:00:31;2.10;;;0.70;;
10299;SDS011;5195;48.562;9.192;2022-09-09T14:02:56;2.43;;;1.03;;
10299;SDS011;5195;48.562;9.192;2022-09-09T14:05:23;3.17;;;1.20;;
10299;SDS011;5195;48.562;9.192;2022-09-09T14:07:49;3.40;;;0.70;;
10299;SDS011;5195;48.562;9.192;2022-09-09T14:10:15;3.77;;;0.90;;
10299;SDS011;5195;48.562;9.192;2022-09-09T14:12:40;2.17;;;0.95;;
10299;SDS011;5195;48.562;9.192;2022-09-09T14:15:07;1.30;;;0.53;;
10299;SDS011;5195;48.562;9.192;2022-09-09T14:17:33;3.42;;;1.00;;
10299;SDS011;5195;48.562;9.192;2022-09-09T14:19:58;1.30;;;0.63;;
10299;SDS011;5195;48.562;9.192;2022-09-09T14:22:24;2.15;;;0.80;;
10299;SDS011;5195;48.562;9.192;2022-09-09T14:24:49;0.73;;;0.43;;
10299;SDS011;5195;48.562;9.192;2022-09-09T14:27:15;1.40;;;0.70;;
10299;SDS011;5195;48.562;9.192;2022-09-09T14:29:41;3.47;;;0.53;;
10299;SDS011;5195;48.562;9.192;2022-09-09T14:32:07;1.60;;;0.70;;
10299;SDS011;5195;48.562;9.192;2022-09-09T14:34:32;1.30;;;0.60;;
10299;SDS011;5195;48.562;9.192;2022-09-09T14:36:58;3.63;;;0.80;;
10299;SDS011;5195;48.562;9.192;2022-09-09T14:39:23;1.85;;;0.73;;
10299;SDS011;5195;48.562;9.192;2022-09-09T14:41:49;1.90;;;0.80;;
10299;SDS011;5195;48.562;9.192;2022-09-09T14:44:14;3.00;;;0.57;;
10299;SDS011;5195;48.562;9.192;2022-09-09T14:46:40;1.13;;;0.60;;
10299;SDS011;5195;48.562;9.192;2022-09-09T14:49:06;1.13;;;0.67;;
10299;SDS011;5195;48.562;9.192;2022-09-09T14:51:33;1.67;;;0.57;;
10299;SDS011;5195;48.562;9.192;2022-09-09T14:53:58;2.87;;;0.97;;
10299;SDS011;5195;48.562;9.192;2022-09-09T14:56:25;3.60;;;0.90;;
10299;SDS011;5195;48.562;9.192;2022-09-09T14:58:49;2.60;;;0.60;;
10299;SDS011;5195;48.562;9.192;2022-09-09T15:01:16;2.10;;;0.50;;
10299;SDS011;5195;48.562;9.192;2022-09-09T15:03:41;2.90;;;0.82;;
10299;SDS011;5195;48.562;9.192;2022-09-09T15:06:07;3.37;;;0.80;;
10299;SDS011;5195;48.562;9.192;2022-09-09T15:08:32;1.83;;;0.70;;
10299;SDS011;5195;48.562;9.192;2022-09-09T15:11:01;1.03;;;0.57;;
10299;SDS011;5195;48.562;9.192;2022-09-09T15:13:29;2.43;;;0.80;;
10299;SDS011;5195;48.562;9.192;2022-09-09T15:15:55;1.77;;;0.70;;
10299;SDS011;5195;48.562;9.192;2022-09-09T15:18:21;1.77;;;0.73;;
10299;SDS011;5195;48.562;9.192;2022-09-09T15:20:47;2.10;;;0.80;;
10299;SDS011;5195;48.562;9.192;2022-09-09T15:23:13;2.53;;;0.70;;
10299;SDS011;5195;48.562;9.192;2022-09-09T15:25:38;1.20;;;0.70;;
10299;SDS011;5195;48.562;9.192;2022-09-09T15:28:04;1.17;;;0.60;;
10299;SDS011;5195;48.562;9.192;2022-09-09T15:30:31;1.53;;;0.60;;
10299;SDS011;5195;48.562;9.192;2022-09-09T15:32:58;1.67;;;0.50;;
10299;SDS011;5195;48.562;9.192;2022-09-09T15:35:23;3.13;;;0.70;;
10299;SDS011;5195;48.562;9.192;2022-09-09T15:37:49;1.90;;;0.80;;
10299;SDS011;5195;48.562;9.192;2022-09-09T15:40:14;2.07;;;0.70;;
10299;SDS011;5195;48.562;9.192;2022-09-09T15:42:40;1.48;;;0.70;;
10299;SDS011;5195;48.562;9.192;2022-09-09T15:45:06;1.33;;;0.70;;
10299;SDS011;5195;48.562;9.192;2022-09-09T15:47:32;1.47;;;0.90;;
10299;SDS011;5195;48.562;9.192;2022-09-09T15:49:57;2.72;;;0.77;;
10299;SDS011;5195;48.562;9.192;2022-09-09T15:52:23;2.53;;;0.60;;
10299;SDS011;5195;48.562;9.192;2022-09-09T15:54:49;2.73;;;0.83;;
10299;SDS011;5195;48.562;9.192;2022-09-09T15:57:14;1.80;;;0.73;;
10299;SDS011;5195;48.562;9.192;2022-09-09T15:59:42;3.23;;;0.90;;
10299;SDS011;5195;48.562;9.192;2022-09-09T16:02:09;1.35;;;0.60;;
10299;SDS011;5195;48.562;9.192;2022-09-09T16:04:33;1.57;;;0.57;;
10299;SDS011;5195;48.562;9.192;2022-09-09T16:07:00;0.83;;;0.60;;
10299;SDS011;5195;48.562;9.192;2022-09-09T16:09:24;0.87;;;0.40;;
10299;SDS011;5195;48.562;9.192;2022-09-09T16:11:51;2.33;;;0.50;;
10299;SDS011;5195;48.562;9.192;2022-09-09T16:14:16;1.80;;;0.40;;
10299;SDS011;5195;48.562;9.192;2022-09-09T16:16:43;3.20;;;1.00;;
10299;SDS011;5195;48.562;9.192;2022-09-09T16:19:11;1.00;;;0.60;;
10299;SDS011;5195;48.562;9.192;2022-09-09T16:21:37;1.67;;;0.50;;
10299;SDS011;5195;48.562;9.192;2022-09-09T16:24:02;2.33;;;0.43;;
10299;SDS011;5195;48.562;9.192;2022-09-09T16:26:27;1.13;;;0.40;;
10299;SDS011;5195;48.562;9.192;2022-09-09T16:28:52;2.10;;;0.37;;
10299;SDS011;5195;48.562;9.192;2022-09-09T16:31:19;1.37;;;0.57;;
10299;SDS011;5195;48.562;9.192;2022-09-09T16:33:44;2.30;;;0.70;;
10299;SDS011;5195;48.562;9.192;2022-09-09T16:36:10;2.20;;;0.57;;
10299;SDS011;5195;48.562;9.192;2022-09-09T16:38:36;1.30;;;0.60;;
10299;SDS011;5195;48.562;9.192;2022-09-09T16:41:01;1.10;;;0.70;;
10299;SDS011;5195;48.562;9.192;2022-09-09T16:43:27;1.30;;;0.30;;
10299;SDS011;5195;48.562;9.192;2022-09-09T16:45:52;2.00;;;0.40;;
10299;SDS011;5195;48.562;9.192;2022-09-09T16:48:18;1.02;;;0.52;;
10299;SDS011;5195;48.562;9.192;2022-09-09T16:50:43;0.50;;;0.40;;
10299;SDS011;5195;48.562;9.192;2022-09-09T16:53:10;2.05;;;0.80;;
10299;SDS011;5195;48.562;9.192;2022-09-09T16:55:40;0.60;;;0.50;;
10299;SDS011;5195;48.562;9.192;2022-09-09T16:58:07;2.20;;;0.70;;
10299;SDS011;5195;48.562;9.192;2022-09-09T17:00:32;0.83;;;0.50;;
10299;SDS011;5195;48.562;9.192;2022-09-09T17:02:57;2.40;;;0.50;;
10299;SDS011;5195;48.562;9.192;2022-09-09T17:05:23;0.73;;;0.60;;
10299;SDS011;5195;48.562;9.192;2022-09-09T17:07:48;0.70;;;0.50;;
10299;SDS011;5195;48.562;9.192;2022-09-09T17:10:14;1.90;;;0.50;;
10299;SDS011;5195;48.562;9.192;2022-09-09T17:12:42;1.07;;;0.73;;
10299;SDS011;5195;48.562;9.192;2022-09-09T17:15:08;1.50;;;0.60;;
10299;SDS011;5195;48.562;9.192;2022-09-09T17:17:34;1.00;;;0.70;;
10299;SDS011;5195;48.562;9.192;2022-09-09T17:19:59;1.87;;;0.70;;
10299;SDS011;5195;48.562;9.192;2022-09-09T17:22:26;1.17;;;0.70;;
10299;SDS011;5195;48.562;9.192;2022-09-09T17:24:50;1.50;;;0.80;;
10299;SDS011;5195;48.562;9.192;2022-09-09T17:27:17;0.85;;;0.60;;
10299;SDS011;5195;48.562;9.192;2022-09-09T17:29:44;1.70;;;0.60;;